createdAt,value
2018-05-11T00:04:49.188Z,96.10
2018-05-11T00:09:51.551Z,95.70
2018-05-11T00:14:52.954Z,95.90
2018-05-11T00:19:54.350Z,95.80
2018-05-11T00:24:56.464Z,95.80
2018-05-11T00:29:57.878Z,95.80
2018-05-11T00:34:59.393Z,95.80
2018-05-11T00:40:00.759Z,95.60
2018-05-11T00:45:02.242Z,95.40
2018-05-11T00:50:03.792Z,95.40
2018-05-11T00:55:18.592Z,95.40
2018-05-11T01:00:19.913Z,95.50
2018-05-11T01:05:21.198Z,95.70
2018-05-11T01:10:22.532Z,95.90
2018-05-11T01:15:24.625Z,95.80
2018-05-11T01:20:27.064Z,95.80
2018-05-11T01:25:28.471Z,95.70
2018-05-11T01:30:29.854Z,96.00
2018-05-11T01:35:32.222Z,96.10
2018-05-11T01:40:34.306Z,95.90
2018-05-11T01:45:36.498Z,95.80
2018-05-11T01:50:38.902Z,95.80
2018-05-11T01:55:41.341Z,95.80
2018-05-11T02:00:42.727Z,95.50
2018-05-11T02:05:44.192Z,95.70
2018-05-11T02:10:45.574Z,95.80
2018-05-11T02:15:47.038Z,95.70
2018-05-11T02:20:49.488Z,95.70
2018-05-11T02:25:51.636Z,95.80
2018-05-11T02:30:53.785Z,96.20
2018-05-11T02:35:55.200Z,96.10
2018-05-11T02:40:57.342Z,95.80
2018-05-11T02:45:58.640Z,95.80
2018-05-11T02:51:00.922Z,95.90
2018-05-11T02:56:02.263Z,96.00
2018-05-11T03:01:03.559Z,96.10
2018-05-11T03:06:04.986Z,96.00
2018-05-11T03:11:06.278Z,96.00
2018-05-11T03:16:07.531Z,96.30
2018-05-11T03:21:08.944Z,96.10
2018-05-11T03:26:10.244Z,95.80
2018-05-11T03:31:11.538Z,95.80
2018-05-11T03:36:12.898Z,95.70
2018-05-11T03:41:14.232Z,96.00
2018-05-11T03:46:15.514Z,95.60
2018-05-11T03:51:16.843Z,95.50
2018-05-11T03:56:18.228Z,95.60
2018-05-11T04:01:31.802Z,96.10
2018-05-11T04:06:45.498Z,96.40
2018-05-11T04:11:46.783Z,96.30
2018-05-11T04:16:48.154Z,96.10
2018-05-11T04:21:50.413Z,95.20
2018-05-11T04:26:51.715Z,95.80
2018-05-11T04:31:52.942Z,96.30
2018-05-11T04:36:55.300Z,96.30
2018-05-11T04:41:57.625Z,97.30
2018-05-11T04:46:58.935Z,94.40
2018-05-11T04:52:01.042Z,90.60
2018-05-11T04:57:02.350Z,90.60
2018-05-11T05:02:03.771Z,84.60
2018-05-11T05:07:05.146Z,80.90
2018-05-11T05:12:07.527Z,76.70
2018-05-11T05:17:08.808Z,72.20
2018-05-11T05:22:10.309Z,72.40
2018-05-11T05:27:12.719Z,72.00
2018-05-11T05:32:14.117Z,73.80
2018-05-11T05:37:15.477Z,69.20
2018-05-11T05:42:16.855Z,69.60
2018-05-11T05:47:19.211Z,66.80
2018-05-11T05:52:20.514Z,73.30
2018-05-11T05:57:22.766Z,76.20
2018-05-11T06:02:25.083Z,76.90
2018-05-11T06:07:26.385Z,75.30
2018-05-11T06:12:27.787Z,67.70
2018-05-11T06:17:30.234Z,59.50
2018-05-11T06:22:31.576Z,54.40
2018-05-11T06:27:32.900Z,57.60
2018-05-11T06:32:34.225Z,66.70
2018-05-11T06:37:36.342Z,71.20
2018-05-11T06:42:37.653Z,71.10
2018-05-11T06:47:40.713Z,70.10
2018-05-11T06:52:42.126Z,70.00
2018-05-11T06:57:43.649Z,72.10
2018-05-11T07:02:46.660Z,71.60
2018-05-11T07:07:48.035Z,67.30
2018-05-11T07:12:49.579Z,68.40
2018-05-11T07:17:50.978Z,70.60
2018-05-11T07:22:53.304Z,62.70
2018-05-11T07:27:54.715Z,62.70
2018-05-11T07:32:57.111Z,61.60
2018-05-11T07:37:58.448Z,59.60
2018-05-11T07:42:59.716Z,63.70
2018-05-11T07:48:01.054Z,66.20
2018-05-11T07:53:02.396Z,63.20
2018-05-11T07:58:03.765Z,61.20
2018-05-11T08:03:05.253Z,60.60
2018-05-11T08:08:06.676Z,62.30
2018-05-11T08:13:08.781Z,67.50
2018-05-11T08:18:10.057Z,67.30
2018-05-11T08:23:11.381Z,68.60
2018-05-11T08:28:13.502Z,65.20
2018-05-11T08:33:14.815Z,65.00
2018-05-11T08:38:16.968Z,64.40
2018-05-11T08:43:18.427Z,63.90
2018-05-11T08:48:20.760Z,65.10
2018-05-11T08:53:22.995Z,68.80
2018-05-11T08:58:24.697Z,68.70
2018-05-11T09:03:26.997Z,62.40
2018-05-11T09:08:29.184Z,63.10
2018-05-11T09:13:30.594Z,62.90
2018-05-11T09:18:32.042Z,62.70
2018-05-11T09:23:33.545Z,59.50
2018-05-11T09:28:35.125Z,58.50
2018-05-11T09:33:37.514Z,56.60
2018-05-11T09:38:39.100Z,54.50
2018-05-11T09:43:40.585Z,56.00
2018-05-11T09:48:43.947Z,55.80
2018-05-11T09:53:45.235Z,56.60
2018-05-11T09:58:47.362Z,54.50
2018-05-11T10:03:48.716Z,54.40
2018-05-11T10:08:52.137Z,54.30
2018-05-11T10:13:53.653Z,51.80
2018-05-11T10:18:55.136Z,50.70
2018-05-11T10:23:59.843Z,50.90
2018-05-11T10:29:02.361Z,53.70
2018-05-11T10:34:04.632Z,47.50
2018-05-11T10:39:07.020Z,46.60
2018-05-11T10:44:08.650Z,46.50
2018-05-11T10:49:10.190Z,46.80
2018-05-11T10:54:11.503Z,46.00
2018-05-11T10:59:12.990Z,46.40
2018-05-11T11:04:18.381Z,46.50
2018-05-11T11:09:20.577Z,45.00
2018-05-11T11:14:22.355Z,46.50
2018-05-11T11:19:24.070Z,43.90
2018-05-11T11:24:27.490Z,41.50
2018-05-11T11:29:32.616Z,39.90
2018-05-11T11:34:35.510Z,39.90
2018-05-11T11:39:37.133Z,41.20
2018-05-11T11:44:39.825Z,43.80
2018-05-11T11:49:41.318Z,42.30
2018-05-11T11:54:44.119Z,44.70
2018-05-11T11:59:45.736Z,43.10
2018-05-11T12:04:50.764Z,38.40
2018-05-11T12:09:52.298Z,38.30
2018-05-11T12:14:53.931Z,39.10
2018-05-11T12:19:55.412Z,41.20
2018-05-11T12:24:56.975Z,40.80
2018-05-11T12:29:58.448Z,43.50
2018-05-11T12:35:01.951Z,43.40
2018-05-11T12:40:04.774Z,42.70
2018-05-11T12:45:06.517Z,43.80
2018-05-11T12:50:08.020Z,44.50
2018-05-11T12:55:09.431Z,45.20
2018-05-11T13:00:11.764Z,39.50
2018-05-11T13:05:14.408Z,39.40
2018-05-11T13:10:16.388Z,38.10
2018-05-11T13:15:17.993Z,35.90
2018-05-11T13:20:19.490Z,35.80
2018-05-11T13:25:21.034Z,36.30
2018-05-11T13:30:22.702Z,34.30
2018-05-11T13:35:24.222Z,34.60
2018-05-11T13:40:25.595Z,35.30
2018-05-11T13:45:26.930Z,31.90
2018-05-11T13:50:29.755Z,29.10
2018-05-11T13:55:31.107Z,32.90
2018-05-11T14:00:53.269Z,36.50
2018-05-11T14:01:09.541Z,37.10
2018-05-11T14:01:26.524Z,36.50
2018-05-11T14:01:42.835Z,36.40
2018-05-11T14:01:59.056Z,35.90
2018-05-11T14:02:37.900Z,37.10
2018-05-11T14:02:54.908Z,36.10
2018-05-11T14:03:12.942Z,37.80
2018-05-11T14:03:30.011Z,37.40
2018-05-11T14:03:46.983Z,36.30
2018-05-11T14:04:03.337Z,36.20
2018-05-11T14:04:19.586Z,35.90
2018-05-11T14:04:36.679Z,35.60
2018-05-11T14:04:52.818Z,35.20
2018-05-11T14:05:09.117Z,35.50
2018-05-11T14:05:25.448Z,35.10
2018-05-11T14:05:42.432Z,37.40
2018-05-11T14:05:58.641Z,37.20
2018-05-11T14:06:14.843Z,35.70
2018-05-11T14:06:31.185Z,34.50
2018-05-11T14:06:47.494Z,34.80
2018-05-11T14:07:03.886Z,34.20
2018-05-11T14:07:20.259Z,34.10
2018-05-11T14:07:39.258Z,33.70
2018-05-11T14:07:55.702Z,34.40
2018-05-11T14:08:12.170Z,37.70
2018-05-11T14:08:28.663Z,39.90
2018-05-11T14:08:45.129Z,36.00
2018-05-11T14:09:01.673Z,34.00
2018-05-11T14:09:18.134Z,32.90
2018-05-11T14:09:34.607Z,32.10
2018-05-11T14:09:51.096Z,32.70
2018-05-11T14:10:07.545Z,33.70
2018-05-11T14:10:24.888Z,33.10
2018-05-11T14:10:41.367Z,33.00
2018-05-11T14:10:57.910Z,32.80
2018-05-11T14:11:14.413Z,33.70
2018-05-11T14:11:31.691Z,32.30
2018-05-11T14:11:48.181Z,32.30
2018-05-11T14:12:04.672Z,32.00
2018-05-11T14:12:21.088Z,32.10
2018-05-11T14:12:38.189Z,31.20
2018-05-11T14:12:54.556Z,31.10
2018-05-11T14:13:11.641Z,31.60
2018-05-11T14:13:45.100Z,31.10
2018-05-11T14:14:02.270Z,31.40
2018-05-11T14:14:19.564Z,31.50
2018-05-11T14:14:35.853Z,31.50
2018-05-11T14:14:52.209Z,31.70
2018-05-11T14:15:08.502Z,32.00
2018-05-11T14:20:10.022Z,31.80
2018-05-11T14:25:11.339Z,32.90
2018-05-11T14:30:12.873Z,33.40
2018-05-11T14:36:04.597Z,34.60
2018-05-11T14:36:25.795Z,34.30
2018-05-11T14:36:37.083Z,34.30
2018-05-11T14:36:58.847Z,34.70
2018-05-11T14:42:20.344Z,34.70
2018-05-11T14:47:21.812Z,29.70
2018-05-11T14:52:23.167Z,27.60
2018-05-11T14:57:24.649Z,28.30
2018-05-11T15:02:26.014Z,29.10
2018-05-11T15:07:27.351Z,30.90
2018-05-11T15:12:28.726Z,32.00
2018-05-11T15:17:30.078Z,31.30
2018-05-11T15:22:31.422Z,29.50
2018-05-11T15:27:32.875Z,27.00
2018-05-11T15:32:35.291Z,27.30
2018-05-11T15:37:36.659Z,28.20
2018-05-11T15:42:38.107Z,30.30
2018-05-11T15:47:39.359Z,33.60
2018-05-11T15:52:41.242Z,34.50
2018-05-11T15:57:42.655Z,35.60
2018-05-11T16:02:45.227Z,35.20
2018-05-11T16:07:46.690Z,35.70
2018-05-11T16:12:48.929Z,38.00
2018-05-11T16:17:50.126Z,38.00
2018-05-11T16:22:51.640Z,39.30
2018-05-11T16:27:53.648Z,40.60
2018-05-11T16:32:54.917Z,40.50
2018-05-11T16:37:56.160Z,41.20
2018-05-11T16:43:01.673Z,41.00
2018-05-11T16:48:03.062Z,43.30
2018-05-11T16:53:05.044Z,45.70
2018-05-11T16:58:06.374Z,45.70
2018-05-11T17:03:07.715Z,44.40
2018-05-11T17:08:09.043Z,44.30
2018-05-11T17:13:11.383Z,45.40
2018-05-11T17:18:12.764Z,46.70
2018-05-11T17:23:14.163Z,47.30
2018-05-11T17:28:15.461Z,48.50
2018-05-11T17:33:16.757Z,48.20
2018-05-11T17:38:18.808Z,46.30
2018-05-11T17:43:20.882Z,46.80
2018-05-11T17:48:22.171Z,46.70
2018-05-11T17:53:23.440Z,48.00
2018-05-11T17:58:25.535Z,49.50
2018-05-11T18:03:26.921Z,49.50
2018-05-11T18:08:28.279Z,51.10
2018-05-11T18:13:29.620Z,52.60
2018-05-11T18:18:31.015Z,53.70
2018-05-11T18:23:32.334Z,56.90
2018-05-11T18:28:33.725Z,61.70
2018-05-11T18:33:35.028Z,64.60
2018-05-11T18:38:36.378Z,66.90
2018-05-11T18:43:37.758Z,67.50
2018-05-11T18:48:38.988Z,67.70
2018-05-11T18:53:40.747Z,69.10
2018-05-11T18:58:41.729Z,71.00
2018-05-11T19:03:43.783Z,76.60
2018-05-11T19:08:45.073Z,75.70
2018-05-11T19:13:46.328Z,77.60
2018-05-11T19:18:47.812Z,79.90
2018-05-11T19:23:49.174Z,81.40
2018-05-11T19:28:50.417Z,81.10
2018-05-11T19:33:51.682Z,80.90
2018-05-11T19:38:53.036Z,81.10
2018-05-11T19:43:54.310Z,82.00
2018-05-11T19:48:56.481Z,83.40
2018-05-11T19:53:57.913Z,83.40
2018-05-11T19:58:59.941Z,84.30
2018-05-11T20:04:01.215Z,84.40
2018-05-11T20:09:02.804Z,84.80
2018-05-11T20:14:04.852Z,86.90
2018-05-11T20:19:06.414Z,86.80
2018-05-11T20:24:08.542Z,88.20
2018-05-11T20:29:10.569Z,88.10
2018-05-11T20:34:11.862Z,88.10
2018-05-11T20:39:13.190Z,87.20
2018-05-11T20:44:14.399Z,87.40
2018-05-11T20:49:17.528Z,88.50
2018-05-11T20:54:18.935Z,88.50
2018-05-11T20:59:20.311Z,90.20
2018-05-11T21:04:21.682Z,90.40
2018-05-11T21:09:23.023Z,90.50
2018-05-11T21:14:24.320Z,90.60
2018-05-11T21:19:26.322Z,91.00
2018-05-11T21:24:27.630Z,91.00
2018-05-11T21:29:29.726Z,91.30
2018-05-11T21:34:31.060Z,91.30
2018-05-11T21:39:33.327Z,91.40
2018-05-11T21:44:34.723Z,91.40
2018-05-11T21:49:35.990Z,91.40
2018-05-11T21:54:37.357Z,91.20
2018-05-11T21:59:38.791Z,91.00
2018-05-11T22:04:40.855Z,90.50
2018-05-11T22:09:42.165Z,90.40
2018-05-11T22:14:43.565Z,91.80
2018-05-11T22:19:45.703Z,92.60
2018-05-11T22:24:47.182Z,92.50
2018-05-11T22:29:48.552Z,92.20
2018-05-11T22:34:49.955Z,92.80
2018-05-11T22:39:51.267Z,93.20
2018-05-11T22:44:52.624Z,93.40
2018-05-11T22:49:53.949Z,93.00
2018-05-11T22:54:56.354Z,92.70
2018-05-11T22:59:58.541Z,92.40
2018-05-11T23:04:59.880Z,92.10
2018-05-11T23:10:01.332Z,92.20
2018-05-11T23:15:02.637Z,92.40
2018-05-11T23:20:03.982Z,92.20
2018-05-11T23:25:05.311Z,91.50
2018-05-11T23:30:06.733Z,92.20
2018-05-11T23:35:08.200Z,93.00
2018-05-11T23:40:09.462Z,93.60
2018-05-11T23:45:10.830Z,93.60
2018-05-11T23:50:12.263Z,93.80
2018-05-11T23:55:13.592Z,93.90
